Date,TemperatureHighF,TemperatureAvgF,TemperatureLowF,DewpointHighF,DewpointAvgF,DewpointLowF,HumidityHigh,HumidityAvg,HumidityLow,PressureMaxIn,PressureMinIn,WindSpeedMaxMPH,WindSpeedAvgMPH,GustSpeedMaxMPH,PrecipitationSumIn
2013-1-1,52.0,40.3,30.0,30.0,26.6,22.0,84,59,34,30.27,30.11,6,1,11,0.01
2013-1-2,58.0,44.5,35.0,31.0,26.2,22.0,71,51,29,30.14,29.98,6,1,11,0.00
2013-1-3,59.0,46.0,36.0,31.0,27.4,24.0,66,49,31,30.16,30.00,4,1,9,0.00
2013-1-4,57.0,45.1,36.0,30.0,28.6,25.0,75,54,33,30.27,30.16,4,0,11,0.00
2013-1-5,62.0,46.8,36.0,30.0,26.0,19.0,73,47,22,30.33,30.20,3,0,6,0.00
2013-1-6,67.0,50.5,38.0,28.0,20.0,15.0,46,32,14,30.20,29.91,6,1,15,0.00
2013-1-7,54.0,46.1,37.0,29.0,26.4,21.0,62,47,36,29.93,29.80,12,3,25,0.00
2013-1-8,61.0,46.6,35.0,30.0,27.0,24.0,71,48,25,30.10,29.88,5,1,9,0.00
2013-1-9,70.0,54.7,40.0,27.0,18.4,8.0,53,29,9,30.19,30.00,9,2,24,0.00
2013-1-10,66.0,57.9,44.0,37.0,21.1,16.0,58,25,17,30.01,29.74,8,4,23,0.00
2013-1-11,51.0,40.0,35.0,36.0,21.5,5.0,88,51,24,30.05,29.81,11,3,24,0.09
2013-1-12,45.0,36.6,30.0,16.0,10.6,5.0,52,35,20,30.14,30.00,6,1,13,0.00
2013-1-13,46.0,35.3,26.0,13.0,8.9,4.0,54,35,18,30.16,30.04,7,1,13,0.00
2013-1-14,42.0,33.2,26.0,13.0,6.9,0.0,54,34,22,30.27,30.08,11,2,22,0.00
2013-1-15,46.0,32.6,22.0,8.0,2.8,-5.0,47,30,12,30.43,30.27,6,1,21,0.00
2013-1-16,57.0,42.0,29.0,14.0,7.2,2.0,35,24,13,30.43,30.24,6,1,12,0.00
2013-1-17,69.0,54.1,41.0,17.0,13.0,10.0,31,21,11,30.24,30.10,7,1,16,0.00
2013-1-18,73.0,56.4,43.0,22.0,18.0,15.0,37,23,12,30.18,30.05,4,1,9,0.00
2013-1-19,74.0,57.8,44.0,26.0,19.9,16.0,34,24,12,30.19,30.06,6,1,14,0.00
2013-1-20,76.0,59.0,47.0,30.0,25.5,21.0,38,28,18,30.11,29.95,5,1,9,0.00
2013-1-21,77.0,60.6,50.0,33.0,29.4,26.0,43,32,20,30.05,29.94,9,1,15,0.00
2013-1-22,80.0,63.3,49.0,35.0,30.8,27.0,48,31,17,30.11,30.00,6,1,13,0.00
2013-1-23,81.0,65.4,51.0,34.0,30.0,26.0,43,27,17,30.14,30.01,5,1,11,0.00
2013-1-24,65.0,60.8,57.0,52.0,42.0,30.0,81,53,29,30.14,30.06,6,1,10,0.06
2013-1-25,75.0,63.2,55.0,49.0,46.4,44.0,70,56,34,30.12,29.91,4,1,10,0.01
2013-1-26,66.0,59.4,54.0,56.0,51.8,46.0,96,77,52,29.93,29.83,10,2,19,0.84
2013-1-27,64.0,57.1,52.0,52.0,48.9,47.0,92,75,56,29.97,29.87,6,1,13,0.01
2013-1-28,55.0,49.4,42.0,49.0,39.5,29.0,89,69,53,29.99,29.86,9,4,16,0.02
2013-1-29,50.0,42.6,35.0,35.0,26.5,19.0,83,56,29,30.22,29.98,10,5,19,0.02
2013-1-30,57.0,46.1,36.0,27.0,23.8,14.0,67,43,18,30.36,30.21,8,2,19,0.00
2013-1-31,59.0,50.1,38.0,37.0,30.5,23.0,65,48,30,30.22,30.11,9,2,17,0.00
2013-2-1,70.0,54.2,40.0,34.0,29.2,22.0,60,41,17,30.20,30.11,4,1,11,0.00
2013-2-2,73.0,58.0,46.0,37.0,30.0,20.0,50,37,14,30.22,30.06,5,1,11,0.00
2013-2-3,70.0,60.0,54.0,39.0,33.1,27.0,54,37,21,30.10,29.90,5,1,11,0.00
2013-2-4,69.0,57.7,49.0,40.0,38.1,36.0,65,49,33,29.99,29.89,5,1,11,0.00
2013-2-5,72.0,58.9,48.0,42.0,40.1,37.0,71,52,29,29.98,29.86,8,1,13,0.00
2013-2-6,70.0,59.0,50.0,42.0,39.2,35.0,69,50,28,29.97,29.85,7,2,14,0.00
2013-2-7,69.0,57.3,45.0,39.0,35.6,29.0,73,46,27,30.06,29.91,4,1,11,0.00
2013-2-8,66.0,58.1,49.0,35.0,25.9,14.0,51,31,13,29.91,29.72,10,4,18,0.00
2013-2-9,52.0,44.0,35.0,37.0,28.4,23.0,92,56,37,30.04,29.75,7,2,18,0.24
2013-2-10,56.0,44.9,35.0,27.0,24.1,19.0,69,46,27,30.06,29.95,5,1,12,0.02
2013-2-11,51.0,39.8,34.0,35.0,28.8,23.0,96,68,40,30.19,29.96,6,2,14,0.17
2013-2-12,51.0,40.9,33.0,35.0,30.8,24.0,96,70,44,30.32,30.19,10,2,17,0.04
2013-2-13,59.0,45.3,32.0,29.0,26.0,17.0,75,49,21,30.23,30.10,5,1,11,0.00
2013-2-14,64.0,50.5,38.0,30.0,27.4,25.0,63,43,24,30.16,30.02,8,2,16,0.00
2013-2-15,70.0,55.6,43.0,33.0,25.5,9.0,62,35,11,30.20,30.10,11,2,19,0.00
2013-2-16,75.0,59.6,44.0,21.0,12.0,2.0,37,18,6,30.22,29.94,7,2,18,0.00
2013-2-17,72.0,60.7,50.0,26.0,13.6,1.0,32,17,6,29.95,29.78,7,2,16,0.00
2013-2-18,69.0,58.4,47.0,25.0,18.0,8.0,36,22,10,29.99,29.86,4,1,10,0.00
2013-2-19,69.0,59.2,49.0,32.0,16.7,9.0,46,20,10,29.88,29.65,11,4,23,0.00
2013-2-20,51.0,40.0,32.0,39.0,32.4,28.0,95,76,47,29.96,29.64,9,3,20,0.40
2013-2-21,52.0,41.3,32.0,36.0,32.7,30.0,95,73,49,30.10,29.96,6,1,11,0.41
2013-2-22,54.0,44.6,36.0,38.0,32.0,24.0,94,64,42,30.15,30.01,6,2,15,0.09
2013-2-23,63.0,49.5,35.0,29.0,26.1,21.0,73,43,20,30.15,29.84,4,1,9,0.00
2013-2-24,51.0,45.4,39.0,32.0,18.5,7.0,73,36,18,30.07,29.77,17,6,29,0.00
2013-2-25,57.0,45.1,32.0,22.0,18.0,14.0,54,34,23,30.22,30.04,6,2,18,0.00
2013-2-26,61.0,49.0,36.0,24.0,19.3,13.0,55,33,17,30.06,29.95,8,2,18,0.00
2013-2-27,63.0,50.8,39.0,20.0,12.7,5.0,46,24,10,30.18,30.06,13,3,21,0.00
2013-2-28,66.0,52.4,38.0,18.0,13.7,7.0,41,23,12,30.28,30.17,13,2,21,0.00
2013-3-1,73.0,57.2,42.0,26.0,19.1,14.0,36,24,13,30.31,30.15,8,1,12,0.00
2013-3-2,81.0,64.5,46.0,31.0,26.0,20.0,44,25,11,30.24,30.03,4,1,9,0.00
2013-3-3,78.0,67.6,55.0,30.0,23.2,18.0,32,20,11,30.04,29.84,8,2,15,0.00
2013-3-4,70.0,64.9,60.0,33.0,26.5,17.0,35,24,15,29.98,29.78,11,3,16,0.00
2013-3-5,77.0,62.7,48.0,35.0,30.1,24.0,52,32,15,30.05,29.91,8,1,18,0.00
2013-3-6,79.0,66.9,55.0,37.0,30.7,23.0,44,27,15,29.96,29.80,7,1,13,0.00
2013-3-7,77.0,67.1,57.0,34.0,25.7,16.0,35,22,10,29.88,29.78,9,3,20,0.00
2013-3-8,64.0,56.1,43.0,52.0,38.3,28.0,82,54,26,29.92,29.68,14,4,29,0.20
2013-3-9,50.0,45.5,40.0,40.0,36.4,31.0,91,71,59,30.09,29.92,7,2,14,0.17
2013-3-10,62.0,52.4,44.0,39.0,35.5,28.0,80,55,28,30.15,30.05,11,4,22,0.01
2013-3-11,70.0,57.0,44.0,36.0,32.8,27.0,64,42,23,30.14,29.97,7,2,14,0.00
2013-3-12,79.0,62.6,46.0,40.0,34.1,29.0,61,37,17,30.05,29.93,7,2,15,0.00
2013-3-13,86.0,71.0,53.0,37.0,31.8,26.0,50,26,12,30.06,29.93,8,2,17,0.00
2013-3-14,90.0,75.0,56.0,32.0,26.5,16.0,33,18,7,30.03,29.89,8,1,15,0.00
2013-3-15,91.0,75.2,56.0,30.0,24.0,-1.0,33,16,3,29.92,29.77,9,2,24,0.00
2013-3-16,87.0,75.2,61.0,29.0,20.0,10.0,24,14,6,29.80,29.62,8,2,16,0.00
2013-3-17,81.0,71.1,61.0,25.0,22.0,17.0,23,16,9,29.82,29.70,9,3,18,0.00
2013-3-18,80.0,69.6,56.0,34.0,26.4,18.0,35,21,10,29.90,29.80,9,2,15,0.00
2013-3-19,77.0,67.8,57.0,36.0,30.1,26.0,38,25,17,29.95,29.83,7,2,16,0.00
2013-3-20,81.0,68.7,56.0,35.0,30.2,27.0,39,25,15,29.95,29.78,6,1,13,0.00
2013-3-21,75.0,68.4,60.0,36.0,32.3,29.0,38,27,21,29.78,29.63,5,1,12,0.00
2013-3-22,78.0,69.2,61.0,38.0,30.9,27.0,40,25,16,29.71,29.59,8,2,17,0.00
2013-3-23,72.0,64.0,54.0,39.0,22.2,-5.0,46,25,6,29.90,29.71,11,3,20,0.00
2013-3-24,74.0,64.1,50.0,12.0,4.4,-3.0,20,10,5,29.94,29.80,8,3,17,0.00
2013-3-25,79.0,66.2,49.0,20.0,14.2,8.0,24,14,9,29.94,29.82,7,2,16,0.00
2013-3-26,84.0,70.9,55.0,21.0,15.0,4.0,25,13,5,29.89,29.72,7,2,16,0.00
2013-3-27,83.0,72.3,61.0,25.0,17.4,9.0,20,13,8,29.89,29.78,9,2,22,0.00
2013-3-28,83.0,72.2,62.0,35.0,21.1,9.0,23,15,9,29.95,29.84,7,2,16,0.00
2013-3-29,85.0,73.0,58.0,34.0,20.9,10.0,27,15,7,29.99,29.88,7,2,14,0.00
2013-3-30,81.0,71.1,61.0,29.0,21.2,-99.9,22,16,8,29.95,29.83,7,2,16,0.00
2013-3-31,84.0,71.3,56.0,32.0,26.7,20.0,35,20,11,29.94,29.79,6,1,13,0.00
2013-4-1,81.0,70.6,58.0,37.0,29.8,21.0,33,23,16,29.90,29.77,11,3,20,0.00
2013-4-2,76.0,67.0,54.0,27.0,22.3,15.0,31,19,10,29.87,29.78,12,4,20,0.00
2013-4-3,81.0,69.9,56.0,29.0,26.7,23.0,30,20,13,29.95,29.85,6,2,14,0.00
2013-4-4,88.0,72.6,56.0,32.0,23.2,10.0,36,18,6,29.98,29.81,8,2,16,0.00
2013-4-5,86.0,74.1,61.0,33.0,28.4,22.0,29,19,12,29.86,29.72,6,2,17,0.00
2013-4-6,84.0,72.8,59.0,35.0,28.6,21.0,30,20,13,29.87,29.71,7,2,14,0.00
2013-4-7,84.0,72.5,57.0,39.0,32.3,25.0,44,25,12,29.78,29.63,7,2,15,0.00
2013-4-8,80.0,69.6,45.0,43.0,34.6,25.0,89,29,15,29.64,29.30,17,7,27,0.15
2013-4-9,64.0,54.7,45.0,43.0,32.1,22.0,90,47,22,29.86,29.48,10,3,17,0.16
2013-4-10,66.0,57.1,47.0,31.0,28.1,23.0,48,34,20,29.95,29.85,8,2,17,0.00
2013-4-11,78.0,64.1,49.0,32.0,27.5,19.0,50,28,13,29.96,29.71,6,2,15,0.00
2013-4-12,74.0,67.0,56.0,31.0,26.0,19.0,32,22,14,29.74,29.65,9,2,16,0.00
2013-4-13,83.0,71.5,56.0,30.0,24.9,18.0,34,19,9,29.77,29.62,8,2,15,0.00
2013-4-14,83.0,71.9,62.0,39.0,29.9,22.0,33,22,11,29.69,29.56,10,4,18,0.00
2013-4-15,85.0,72.6,62.0,38.0,32.4,25.0,39,24,12,29.68,29.58,11,6,24,0.00
2013-4-16,82.0,71.0,60.0,40.0,31.1,24.0,39,24,13,29.72,29.59,11,6,26,0.00
2013-4-17,66.0,59.1,54.0,41.0,24.8,10.0,59,30,14,29.95,29.67,9,4,21,0.00
2013-4-18,69.0,57.4,44.0,17.0,11.3,5.0,30,17,8,30.08,29.94,8,3,18,0.00
2013-4-19,80.0,64.0,46.0,14.0,4.3,-6.0,25,11,4,30.11,29.88,8,2,17,0.00
2013-4-20,83.0,70.6,52.0,18.0,10.5,0.0,16,10,6,29.91,29.80,10,3,18,0.00
2013-4-21,88.0,77.1,61.0,23.0,15.1,7.0,21,10,5,29.94,29.80,7,2,16,0.00
2013-4-22,90.0,78.6,62.0,27.0,15.9,-2.0,21,10,3,29.85,29.65,7,2,16,0.00
2013-4-23,86.0,77.1,67.0,29.0,20.8,15.0,22,12,8,29.74,29.65,8,3,19,0.00
2013-4-24,88.0,77.2,66.0,30.0,23.4,13.0,23,15,6,29.79,29.69,8,2,15,0.00
2013-4-25,81.0,73.1,65.0,33.0,26.4,13.0,28,18,8,29.91,29.73,13,5,28,0.00
2013-4-26,85.0,71.3,53.0,31.0,27.9,23.0,37,21,12,30.01,29.91,8,3,16,0.00
2013-4-27,89.0,77.0,60.0,30.0,24.0,18.0,27,15,9,29.96,29.77,7,2,17,0.00
2013-4-28,93.0,80.9,63.0,25.0,15.8,5.0,22,10,4,29.79,29.62,7,3,14,0.00
2013-4-29,95.0,82.9,66.0,22.0,13.1,2.0,14,8,3,29.69,29.52,8,3,16,0.00
2013-4-30,94.0,83.1,67.0,24.0,16.4,7.0,16,9,4,29.66,29.54,7,2,18,0.00
2013-5-1,89.0,79.1,69.0,25.0,19.8,9.0,17,12,5,29.85,29.66,8,3,16,0.00
2013-5-2,90.0,78.7,65.0,26.0,14.8,5.0,18,10,5,29.97,29.83,8,3,19,0.00
2013-5-3,86.0,74.0,59.0,23.0,14.4,7.0,23,11,5,29.90,29.68,12,3,26,0.00
2013-5-4,90.0,78.1,63.0,29.0,17.2,7.0,17,11,5,29.71,29.57,9,3,18,0.00
2013-5-5,87.0,76.9,68.0,39.0,26.9,19.0,32,16,8,29.81,29.63,10,5,22,0.00
2013-5-6,83.0,70.9,61.0,50.0,39.8,33.0,67,35,18,29.87,29.77,9,3,17,0.02
2013-5-7,81.0,69.7,61.0,45.0,36.0,19.0,49,32,10,29.89,29.75,9,3,19,0.00
2013-5-8,76.0,67.0,56.0,43.0,38.9,31.0,58,38,20,29.94,29.82,9,2,16,0.00
2013-5-9,82.0,70.7,60.0,43.0,35.2,20.0,53,30,11,29.91,29.78,7,3,14,0.00
2013-5-10,84.0,71.3,60.0,40.0,32.6,-99.9,42,26,16,29.94,29.82,8,2,17,0.00
2013-5-11,87.0,74.9,61.0,39.0,34.0,-99.9,39,24,14,29.97,29.88,8,2,22,0.00
2013-5-12,91.0,80.0,65.0,38.0,33.0,28.0,33,19,11,30.01,29.80,10,3,21,0.00
2013-5-13,93.0,83.1,70.0,34.0,26.2,14.0,23,14,7,29.92,29.75,11,3,21,0.00
2013-5-14,96.0,84.2,72.0,37.0,30.5,16.0,27,15,8,29.83,29.67,10,2,19,0.00
2013-5-15,96.0,84.0,72.0,36.0,32.7,28.0,25,17,9,29.84,29.67,9,3,20,0.00
2013-5-16,95.0,78.1,70.0,32.0,13.0,-99.9,22,14,6,29.78,29.61,11,3,18,0.00
2013-5-17,93.0,80.2,71.0,35.0,23.9,-99.9,25,15,5,29.76,29.65,10,3,19,0.00
2013-5-18,89.0,78.0,68.0,33.0,27.3,21.0,25,16,9,29.80,29.69,9,2,15,0.00
2013-5-19,89.0,77.7,64.0,45.0,36.9,27.0,46,25,12,29.80,29.65,8,2,14,0.00
2013-5-20,89.0,79.2,67.0,41.0,30.4,18.0,35,19,10,29.77,29.66,12,4,23,0.00
2013-5-21,94.0,81.1,64.0,28.0,17.2,7.0,20,10,4,29.78,29.63,6,2,13,0.00
2013-5-22,96.0,84.8,70.0,30.0,22.3,11.0,19,11,5,29.68,29.52,10,3,18,0.00
2013-5-23,95.0,84.0,72.0,35.0,27.8,17.0,25,14,6,29.70,29.60,11,4,21,0.00
2013-5-24,95.0,82.5,66.0,43.0,27.5,8.0,35,17,4,29.78,29.67,8,2,16,0.00
2013-5-25,95.0,82.4,70.0,38.0,24.8,0.0,29,15,3,29.79,29.69,8,3,16,0.00
2013-5-26,94.0,80.6,64.0,30.0,15.9,-8.0,25,11,2,29.82,29.72,8,3,15,0.00
2013-5-27,95.0,81.1,66.0,31.0,15.4,-8.0,16,10,2,29.77,29.59,9,3,15,0.00
2013-5-28,92.0,80.2,63.0,35.0,24.6,13.0,26,14,6,29.63,29.47,9,3,28,0.00
2013-5-29,92.0,80.3,68.0,51.0,35.6,32.0,40,21,13,29.62,29.52,6,2,13,0.00
2013-5-30,95.0,83.3,71.0,54.0,43.8,34.0,49,28,13,29.70,29.59,6,2,16,0.00
2013-5-31,96.0,84.5,70.0,58.0,47.6,35.0,59,32,15,29.72,29.62,8,3,18,0.00
2013-6-1,104.0,90.1,72.0,42.0,35.9,20.0,30,16,5,29.68,29.53,7,2,14,0.00
2013-6-2,105.0,91.2,78.0,43.0,36.9,25.0,27,16,7,29.62,29.49,8,3,16,0.00
2013-6-3,101.0,89.2,76.0,41.0,28.3,11.0,25,13,4,29.67,29.56,10,3,19,0.00
2013-6-4,100.0,87.7,74.0,44.0,35.1,27.0,27,17,8,29.70,29.60,7,2,14,0.00
2013-6-5,98.0,87.1,72.0,36.0,24.7,14.0,23,12,5,29.73,29.61,8,3,16,0.00
2013-6-6,101.0,89.3,73.0,30.0,27.2,20.0,18,11,7,29.68,29.54,7,3,19,0.00
2013-6-7,105.0,91.9,76.0,33.0,27.1,20.0,18,11,5,29.63,29.47,7,3,15,0.00
2013-6-8,103.0,91.3,77.0,37.0,24.8,13.0,18,10,4,29.67,29.56,10,4,19,0.00
2013-6-9,102.0,90.5,76.0,37.0,25.2,11.0,22,11,4,29.74,29.62,8,4,16,0.00
2013-6-10,104.0,92.0,74.0,38.0,27.3,15.0,20,11,4,29.73,29.59,8,3,17,0.00
2013-6-11,105.0,93.5,77.0,33.0,23.1,8.0,16,9,3,29.72,29.61,10,4,19,0.00
2013-6-12,105.0,94.2,79.0,35.0,30.6,27.0,18,11,7,29.75,29.62,11,4,20,0.00
2013-6-13,101.0,90.6,80.0,49.0,42.4,35.0,30,19,12,29.75,29.59,10,4,19,0.00
2013-6-14,100.0,90.1,78.0,55.0,48.8,39.0,39,26,16,29.71,29.55,9,3,17,0.00
2013-6-15,101.0,90.3,78.0,55.0,48.9,43.0,36,25,16,29.73,29.60,11,3,19,0.00
2013-6-16,103.0,90.7,77.0,52.0,42.6,27.0,37,21,9,29.76,29.63,9,3,18,0.00
2013-6-17,102.0,90.8,75.0,34.0,28.4,23.0,19,11,7,29.77,29.62,7,2,15,0.00
2013-6-18,103.0,87.9,75.0,29.0,23.1,-15.0,18,10,1,29.70,29.57,5,2,14,0.00
2013-6-19,103.0,90.6,74.0,29.0,17.8,6.0,13,7,4,29.63,29.51,9,2,17,0.00
2013-6-20,99.0,84.8,78.0,35.0,27.2,9.0,21,14,4,29.67,29.58,6,2,16,0.00
2013-6-21,101.0,100.0,98.0,22.0,17.0,13.0,6,5,4,29.65,29.59,8,4,14,0.00
2013-6-22,102.0,93.9,79.0,32.0,20.6,6.0,16,8,3,29.70,29.57,7,4,17,0.00
2013-6-23,100.0,89.2,78.0,37.0,25.1,9.0,18,11,4,29.67,29.53,9,4,24,0.00
2013-6-24,99.0,88.3,77.0,39.0,28.0,16.0,24,12,5,29.71,29.60,9,3,23,0.00
2013-6-25,101.0,88.2,76.0,43.0,26.9,11.0,30,13,4,29.78,29.67,6,2,16,0.00
2013-6-26,101.0,89.4,72.0,35.0,23.3,12.0,20,10,4,29.87,29.75,7,2,26,0.00
2013-6-27,102.0,92.0,75.0,43.0,33.6,22.0,22,13,9,29.88,29.72,12,5,21,0.00
2013-6-28,107.0,96.9,78.0,40.0,35.5,31.0,20,12,8,29.76,29.60,10,2,18,0.00
2013-6-29,108.0,98.5,84.0,44.0,39.0,34.0,19,13,10,29.67,29.52,12,3,23,0.00
2013-6-30,108.0,96.4,82.0,59.0,49.2,43.0,45,22,12,29.74,29.47,13,5,22,0.00
2013-7-1,106.0,89.3,79.0,63.0,55.7,50.0,48,34,17,29.72,29.60,8,2,17,0.11
2013-7-2,99.0,88.7,70.0,62.0,57.3,52.0,74,37,23,29.85,29.66,17,4,38,0.33
2013-7-3,104.0,91.1,76.0,56.0,52.2,48.0,49,28,18,29.73,29.51,9,3,16,0.28
2013-7-4,103.0,92.6,81.0,59.0,54.2,48.0,47,29,18,29.67,29.51,9,3,18,0.00
2013-7-5,98.0,86.1,76.0,67.0,61.3,57.0,72,45,30,29.67,29.54,11,2,22,0.01
2013-7-6,103.0,86.5,76.0,64.0,59.6,57.0,63,43,22,29.67,29.52,11,2,20,0.01
2013-7-7,106.0,90.3,80.0,63.0,59.3,53.0,51,37,19,29.65,29.52,9,2,19,0.08
2013-7-8,103.0,90.1,83.0,61.0,56.4,-99.9,46,34,21,29.73,29.62,12,2,29,0.08
2013-7-9,96.0,88.3,76.0,70.0,63.8,58.0,77,46,33,29.84,29.68,10,5,21,0.02
2013-7-10,97.0,82.0,72.0,69.0,63.5,-99.9,85,58,33,29.83,29.68,7,2,15,0.15
2013-7-11,91.0,81.1,71.0,71.0,66.3,62.0,91,63,44,29.83,29.71,7,3,17,0.09
2013-7-12,92.0,81.9,77.0,71.0,64.4,60.0,83,56,36,29.81,29.69,10,2,20,0.21
2013-7-13,97.0,86.7,76.0,66.0,62.2,58.0,67,46,29,29.81,29.65,8,2,19,0.17
2013-7-14,101.0,89.7,81.0,63.0,60.7,58.0,53,39,27,29.76,29.59,9,2,16,0.00
2013-7-15,101.0,88.0,80.0,67.0,62.0,59.0,60,44,26,29.68,29.52,9,2,22,0.01
2013-7-16,89.0,80.8,76.0,66.0,63.7,60.0,70,57,41,29.87,29.66,10,3,22,0.01
2013-7-17,97.0,85.7,74.0,68.0,60.2,53.0,77,46,25,29.87,29.73,8,2,17,0.00
2013-7-18,96.0,86.9,78.0,59.0,55.2,51.0,47,35,26,29.79,29.64,10,4,20,0.00
2013-7-19,93.0,83.6,77.0,66.0,60.8,55.0,65,47,32,29.77,29.63,8,2,17,0.00
2013-7-20,91.0,77.7,73.0,68.0,65.1,-99.9,79,67,47,29.76,29.62,10,3,18,0.00
2013-7-21,89.0,80.7,74.0,68.0,66.1,62.0,79,62,41,29.79,29.70,11,3,18,0.00
2013-7-22,91.0,80.9,71.0,68.0,65.3,61.0,87,62,41,29.84,29.74,8,3,17,0.00
2013-7-23,95.0,85.2,76.0,65.0,61.1,59.0,66,46,32,29.84,29.68,9,4,19,0.00
2013-7-24,91.0,83.7,78.0,69.0,63.2,59.0,75,51,40,29.77,29.67,6,1,14,0.19
2013-7-25,91.0,80.8,76.0,69.0,67.2,64.0,75,64,43,29.86,29.74,9,1,17,0.22
2013-7-26,93.0,81.4,76.0,68.0,66.4,61.0,74,62,39,29.94,29.84,8,1,12,0.11
2013-7-27,96.0,83.9,75.0,68.0,65.2,61.0,71,55,33,29.88,29.68,8,1,25,0.41
2013-7-28,100.0,88.1,75.0,65.0,56.8,45.0,71,39,21,29.73,29.60,8,2,16,0.41
2013-7-29,99.0,89.1,78.0,51.0,48.2,45.0,33,25,18,29.83,29.70,7,2,14,0.00
2013-7-30,101.0,91.2,79.0,56.0,52.4,50.0,42,28,19,29.92,29.77,9,3,19,0.00
2013-7-31,103.0,90.9,81.0,59.0,53.8,51.0,43,29,19,29.85,29.73,7,2,14,0.00
2013-8-1,90.0,85.0,81.0,62.0,59.4,55.0,49,42,35,29.80,29.72,8,2,15,0.00
2013-8-2,94.0,84.6,80.0,68.0,62.4,58.0,64,48,36,29.80,29.72,6,2,15,0.00
2013-8-3,101.0,87.1,74.0,63.0,58.5,54.0,66,41,23,29.84,29.71,5,1,12,0.00
2013-8-4,97.0,87.3,80.0,62.0,58.3,52.0,49,38,25,29.83,29.71,4,1,11,0.00
2013-8-5,94.0,83.5,72.0,65.0,56.8,53.0,74,42,25,29.85,29.72,11,3,26,0.01
2013-8-6,84.0,75.0,68.0,69.0,63.4,58.0,94,70,45,29.88,29.80,9,2,17,0.07
2013-8-7,94.0,81.9,69.0,64.0,57.1,50.0,78,47,24,29.91,29.77,6,1,15,0.01
2013-8-8,99.0,86.2,72.0,54.0,46.4,32.0,52,28,11,29.80,29.66,7,1,13,0.00
2013-8-9,101.0,90.2,73.0,46.0,41.8,36.0,30,19,12,29.76,29.65,7,2,21,0.00
2013-8-10,100.0,89.0,77.0,43.0,38.9,33.0,26,18,13,29.83,29.69,9,2,17,0.00
2013-8-11,100.0,87.4,75.0,58.0,48.9,35.0,39,27,18,29.80,29.63,7,2,21,0.00
2013-8-12,101.0,90.1,75.0,61.0,50.5,34.0,53,28,14,29.75,29.64,6,2,15,0.00
2013-8-13,102.0,89.7,76.0,42.0,35.7,-99.9,28,16,11,29.81,29.66,10,4,18,0.00
2013-8-14,104.0,90.3,78.0,61.0,46.6,34.0,47,24,14,29.78,29.62,9,3,19,0.00
2013-8-15,104.0,81.0,77.0,60.0,43.1,-99.9,52,35,20,29.80,29.65,5,1,13,0.11
2013-8-16,105.0,88.7,79.0,62.0,53.8,-99.9,51,34,18,29.78,29.65,7,2,17,0.11
2013-8-17,106.0,90.6,78.0,61.0,54.3,-99.9,53,32,16,29.79,29.60,16,4,27,0.01
2013-8-18,105.0,88.5,81.0,58.0,54.6,47.0,44,33,16,29.80,29.68,13,2,23,0.05
2013-8-19,103.0,86.2,79.0,58.0,45.0,-99.9,45,29,17,29.79,29.64,6,1,12,0.05
2013-8-20,103.0,86.3,80.0,64.0,56.3,-99.9,51,38,22,29.79,29.63,8,3,23,0.03
2013-8-21,94.0,84.3,77.0,61.0,57.8,54.0,56,42,27,29.80,29.70,8,2,14,0.03
2013-8-22,101.0,86.1,72.0,63.0,57.4,52.0,67,40,22,29.80,29.62,9,2,15,0.74
2013-8-23,98.0,83.4,72.0,62.0,59.2,55.0,66,46,27,29.76,29.60,12,2,24,0.08
2013-8-24,90.0,80.4,72.0,68.0,58.7,-99.9,84,50,34,29.82,29.69,7,3,18,0.02
2013-8-25,91.0,77.6,72.0,71.0,66.9,64.0,88,71,43,29.86,29.76,9,2,17,0.12
2013-8-26,98.0,78.6,70.0,73.0,67.6,60.0,94,73,30,29.84,29.67,6,1,16,0.53
2013-8-27,97.0,77.9,69.0,68.0,64.6,57.0,86,68,27,29.76,29.71,8,2,19,0.51
2013-8-28,99.0,87.4,78.0,67.0,62.3,58.0,66,45,27,29.81,29.64,10,3,18,0.00
2013-8-29,86.0,78.2,73.0,70.0,66.8,65.0,81,69,52,29.94,29.81,4,1,10,0.01
2013-8-30,88.0,79.3,73.0,71.0,67.8,63.0,88,69,46,29.93,29.81,9,1,19,0.01
2013-8-31,94.0,83.1,74.0,68.0,62.7,-99.9,77,53,36,29.85,29.70,11,3,20,0.00
2013-9-1,97.0,87.7,75.0,65.0,61.4,55.0,66,43,27,29.77,29.63,7,2,15,0.00
2013-9-2,96.0,84.8,76.0,65.0,61.2,56.0,64,46,26,29.82,29.64,8,2,17,0.00
2013-9-3,99.0,85.4,76.0,64.0,59.6,52.0,59,43,23,29.78,29.67,9,2,25,0.00
2013-9-4,101.0,88.4,73.0,62.0,54.2,46.0,63,35,18,29.81,29.68,8,2,19,0.00
2013-9-5,102.0,89.8,77.0,55.0,50.0,46.0,39,27,15,29.78,29.66,9,2,25,0.00
2013-9-6,97.0,86.2,76.0,64.0,55.3,52.0,54,36,24,29.79,29.64,11,2,20,0.03
2013-9-7,87.0,77.9,71.0,65.0,60.3,-99.9,80,57,39,29.84,29.72,7,2,16,0.01
2013-9-8,82.0,75.2,70.0,68.0,65.3,61.0,91,72,56,29.77,29.65,7,2,12,0.06
2013-9-9,84.0,74.3,68.0,69.0,65.7,63.0,95,76,54,29.73,29.62,5,1,13,0.17
2013-9-10,87.0,75.5,64.0,67.0,60.6,56.0,93,62,38,29.81,29.70,6,2,18,0.08
2013-9-11,89.0,78.7,68.0,63.0,57.5,52.0,77,51,30,29.87,29.74,11,3,18,0.00
2013-9-12,94.0,82.7,70.0,60.0,55.2,50.0,62,41,27,29.77,29.60,7,2,17,0.00
2013-9-13,97.0,84.4,71.0,65.0,57.6,44.0,69,43,17,29.66,29.49,7,2,16,0.00
2013-9-14,98.0,85.5,73.0,63.0,55.4,-99.9,65,39,19,29.58,29.48,7,2,16,0.00
2013-9-15,102.0,87.7,73.0,58.0,53.9,48.0,58,34,17,29.62,29.54,4,1,10,0.00
2013-9-16,101.0,89.6,78.0,59.0,56.0,50.0,48,33,19,29.67,29.55,8,3,18,0.00
2013-9-17,100.0,89.7,80.0,60.0,54.8,45.0,47,32,18,29.63,29.48,9,3,19,0.00
2013-9-18,87.0,83.2,78.0,48.0,44.4,40.0,34,26,19,29.58,29.55,5,1,10,0.00
2013-9-19,97.0,86.1,72.0,50.0,46.0,41.0,42,26,18,29.64,29.53,8,2,14,0.00
2013-9-20,99.0,85.6,73.0,56.0,48.2,40.0,44,28,18,29.69,29.57,6,2,15,0.00
2013-9-21,96.0,83.5,72.0,63.0,53.7,-99.9,57,38,23,29.70,29.53,7,2,22,0.08
2013-9-22,91.0,80.5,74.0,65.0,54.5,33.0,63,43,21,29.62,29.48,12,4,23,0.08
2013-9-23,90.0,76.9,62.0,44.0,36.9,30.0,44,25,14,29.79,29.62,10,1,18,0.00
2013-9-24,95.0,81.1,66.0,40.0,36.4,33.0,32,21,12,29.85,29.67,6,1,12,0.00
2013-9-25,93.0,81.5,69.0,36.0,28.0,21.0,27,15,9,29.72,29.54,10,3,21,0.00
2013-9-26,91.0,80.2,71.0,56.0,37.2,22.0,56,23,14,29.62,29.50,12,5,26,0.00
2013-9-27,78.0,71.7,66.0,58.0,42.7,23.0,65,38,17,29.85,29.61,9,3,16,0.00
2013-9-28,87.0,72.7,58.0,43.0,33.1,-99.9,34,24,19,29.96,29.85,11,2,19,0.00
2013-9-29,89.0,77.6,64.0,43.0,37.7,34.0,37,25,17,29.97,29.83,9,2,15,0.00
2013-9-30,90.0,78.0,63.0,39.0,33.4,25.0,37,22,10,29.87,29.73,6,2,15,0.00
2013-10-1,88.0,80.8,77.0,39.0,37.0,34.0,26,21,15,29.79,29.73,4,1,10,0.00
2013-10-2,89.0,78.1,65.0,47.0,41.7,35.0,42,28,16,29.83,29.69,6,2,13,0.00
2013-10-3,90.0,78.4,66.0,54.0,43.7,32.0,52,31,15,29.75,29.58,10,2,16,0.00
2013-10-4,83.0,74.7,65.0,46.0,39.0,23.0,39,28,16,29.85,29.69,11,3,20,0.00
2013-10-5,82.0,70.3,58.0,23.0,16.7,5.0,24,14,6,30.01,29.89,9,3,19,0.00
2013-10-6,88.0,72.3,56.0,23.0,18.4,13.0,22,13,8,30.03,29.89,5,1,10,0.00
2013-10-7,92.0,79.1,62.0,33.0,25.7,19.0,21,14,11,29.91,29.76,8,2,16,0.00
2013-10-8,87.0,78.2,67.0,35.0,29.3,25.0,25,17,13,29.78,29.64,9,2,15,0.00
2013-10-9,87.0,76.3,69.0,45.0,36.8,29.0,37,25,16,29.67,29.54,12,6,29,0.00
2013-10-10,69.0,61.6,54.0,51.0,45.1,39.0,81,55,34,29.88,29.61,8,3,17,0.00
2013-10-11,75.0,62.0,51.0,44.0,40.7,36.0,71,48,27,29.96,29.83,7,1,14,0.00
2013-10-12,84.0,68.9,53.0,40.0,34.4,-99.9,52,31,17,29.89,29.76,7,1,14,0.00
2013-10-13,85.0,75.1,59.0,47.0,38.2,34.0,43,27,17,29.86,29.76,10,3,18,0.00
2013-10-14,80.0,70.5,61.0,45.0,38.0,33.0,53,32,20,29.92,29.81,13,2,21,0.00
2013-10-15,80.0,68.6,58.0,41.0,32.8,25.0,41,28,17,29.86,29.76,7,2,14,0.00
2013-10-16,77.0,67.7,55.0,28.0,21.1,10.0,33,18,8,29.98,29.86,7,1,13,0.00
2013-10-17,79.0,67.5,54.0,24.0,20.1,16.0,25,17,10,29.99,29.83,5,1,12,0.00
2013-10-18,80.0,68.1,53.0,27.0,23.5,19.0,28,19,13,29.93,29.85,9,2,18,0.00
2013-10-19,85.0,69.1,54.0,23.0,16.7,-99.9,27,15,7,29.96,29.84,6,1,11,0.00
2013-10-20,82.0,75.4,59.0,19.0,16.2,12.0,18,11,8,29.88,29.76,6,2,12,0.00
2013-10-21,83.0,73.7,57.0,20.0,16.9,13.0,22,12,8,29.90,29.82,6,2,15,0.00
2013-10-22,88.0,77.6,57.0,26.0,16.7,11.0,21,11,6,29.93,29.80,10,2,24,0.00
2013-10-23,90.0,76.1,62.0,32.0,25.5,19.0,24,16,9,29.83,29.71,6,1,14,0.00
2013-10-24,89.0,80.1,65.0,33.0,26.8,22.0,21,14,11,29.84,29.73,7,3,17,0.00
2013-10-25,84.0,76.8,64.0,31.0,29.7,27.0,28,18,14,29.95,29.87,9,2,16,0.00
2013-10-26,85.0,71.6,57.0,32.0,27.5,-99.9,34,21,13,30.01,29.89,4,1,9,0.00
2013-10-27,88.0,75.4,64.0,36.0,28.5,25.0,28,19,11,29.90,29.66,7,2,18,0.00
2013-10-28,79.0,70.0,65.0,38.0,31.2,-99.9,35,25,14,29.80,29.68,10,4,20,0.00
2013-10-29,79.0,69.4,58.0,40.0,34.9,30.0,47,29,17,29.82,29.72,13,5,25,0.00
2013-10-30,66.0,57.6,50.0,39.0,34.8,25.0,62,44,28,29.99,29.79,8,3,15,0.00
2013-10-31,72.0,57.6,44.0,31.0,24.7,19.0,45,29,14,30.09,29.96,7,1,13,0.00
2013-11-1,77.0,63.5,49.0,27.0,24.6,20.0,36,24,15,30.09,29.96,4,1,10,0.00
2013-11-2,85.0,68.8,53.0,46.0,17.2,-99.9,53,16,7,29.99,29.77,10,2,21,0.02
2013-11-3,80.0,68.8,59.0,50.0,44.5,32.0,70,43,26,29.84,29.64,6,2,15,0.03
2013-11-4,78.0,67.3,56.0,53.0,43.8,32.0,64,44,27,29.76,29.60,11,3,19,0.00
2013-11-5,69.0,60.9,53.0,46.0,42.7,39.0,69,52,35,30.05,29.75,10,2,19,0.00
2013-11-6,73.0,60.4,46.0,41.0,27.4,11.0,69,33,14,30.20,30.05,4,1,9,0.00
2013-11-7,80.0,69.6,56.0,30.0,21.7,8.0,28,17,11,30.12,29.95,11,2,26,0.00
2013-11-8,81.0,69.3,55.0,36.0,32.0,27.0,38,26,18,29.98,29.86,6,1,16,0.00
2013-11-9,82.0,69.3,54.0,38.0,33.6,-99.9,46,29,20,30.01,29.91,12,1,21,0.00
2013-11-10,83.0,71.2,57.0,38.0,35.5,34.0,43,28,18,30.00,29.89,10,2,18,0.00
2013-11-11,86.0,73.2,57.0,39.0,36.8,34.0,43,28,18,29.98,29.88,5,1,11,0.00
2013-11-12,85.0,73.3,61.0,44.0,39.2,33.0,38,30,22,30.06,29.95,10,3,24,0.00
2013-11-13,78.0,69.8,62.0,45.0,43.1,41.0,49,38,30,30.01,29.86,10,2,20,0.00
2013-11-14,80.0,66.9,55.0,45.0,41.2,35.0,60,41,24,29.94,29.77,4,1,10,0.00
2013-11-15,74.0,68.3,63.0,54.0,48.3,43.0,71,50,34,29.71,29.54,10,4,23,0.00
2013-11-16,73.0,63.2,57.0,51.0,43.7,-99.9,72,52,26,29.83,29.62,9,2,17,0.00
2013-11-17,74.0,63.1,54.0,49.0,46.1,44.0,79,56,37,29.98,29.83,5,1,16,0.00
2013-11-18,77.0,64.6,54.0,47.0,44.8,42.0,70,50,32,30.01,29.88,7,1,15,0.00
2013-11-19,77.0,65.8,53.0,44.0,40.7,32.0,63,42,20,29.93,29.77,6,2,12,0.00
2013-11-20,72.0,62.1,54.0,43.0,39.9,35.0,62,45,28,29.83,29.74,6,1,12,0.00
2013-11-21,71.0,62.5,55.0,53.0,43.8,38.0,88,52,33,29.86,29.77,7,2,15,0.10
2013-11-22,65.0,54.3,45.0,55.0,49.2,44.0,97,85,57,29.93,29.70,11,4,22,1.14
2013-11-23,55.0,47.8,45.0,49.0,43.4,-99.9,98,89,63,30.05,29.89,8,2,16,1.31
2013-11-24,58.0,48.9,42.0,45.0,41.8,37.0,95,78,53,30.13,30.02,6,1,12,0.02
2013-11-25,58.0,47.1,38.0,43.0,39.4,35.0,93,76,55,30.21,30.11,6,1,10,0.00
2013-11-26,66.0,54.7,42.0,40.0,33.1,24.0,83,49,25,30.24,30.09,8,2,18,0.00
2013-11-27,63.0,56.3,49.0,31.0,25.2,22.0,45,30,21,30.10,29.94,9,2,22,0.00
2013-11-28,71.0,56.8,44.0,37.0,31.9,27.0,55,40,26,30.05,29.95,6,1,15,0.00
2013-11-29,73.0,59.2,50.0,44.0,38.9,35.0,64,49,26,30.11,30.00,5,1,13,0.00
2013-11-30,69.0,57.0,50.0,47.0,42.1,-99.9,77,60,42,30.11,29.99,5,0,8,0.00
2013-12-1,69.0,57.3,51.0,48.0,45.5,42.0,80,66,42,30.16,30.06,7,1,12,0.00
2013-12-2,69.0,56.5,47.0,46.0,41.5,36.0,83,60,35,30.10,29.88,5,1,10,0.00
2013-12-3,73.0,62.3,51.0,42.0,34.3,20.0,62,38,15,29.88,29.66,6,1,15,0.00
2013-12-4,66.0,57.8,44.0,47.0,41.9,35.0,93,58,33,29.85,29.65,9,4,21,0.18
2013-12-5,49.0,43.8,39.0,44.0,35.1,24.0,95,73,50,30.10,29.82,8,2,15,0.28
2013-12-6,52.0,41.0,33.0,28.0,24.7,21.0,73,54,32,30.20,30.09,5,1,10,0.02
2013-12-7,57.0,43.6,34.0,33.0,24.3,-99.9,72,51,23,30.11,29.99,4,1,11,0.00
2013-12-8,55.0,48.0,43.0,40.0,36.6,28.0,77,65,52,30.10,29.98,4,1,11,0.00
2013-12-9,50.0,41.3,34.0,34.0,23.1,19.0,70,49,30,30.30,30.05,5,2,11,0.00
2013-12-10,59.0,45.8,34.0,27.0,20.5,16.0,58,38,21,30.29,30.10,7,1,12,0.00
2013-12-11,68.0,54.6,42.0,36.0,29.2,21.0,48,38,29,30.18,30.08,8,1,15,0.00
2013-12-12,71.0,57.7,49.0,43.0,35.8,30.0,57,44,34,30.11,29.98,7,2,13,0.00
2013-12-13,61.0,51.1,41.0,34.0,31.4,28.0,71,48,35,30.13,30.03,6,1,13,0.00
2013-12-14,62.0,49.9,39.0,32.0,28.1,-99.9,72,46,26,30.27,30.13,5,1,10,0.00
2013-12-15,66.0,52.7,42.0,30.0,26.2,22.0,52,37,21,30.26,30.13,7,1,14,0.00
2013-12-16,73.0,60.3,46.0,31.0,27.1,24.0,46,29,18,30.17,30.08,4,0,9,0.00
2013-12-17,81.0,67.6,52.0,31.0,27.8,24.0,35,23,15,30.14,30.00,3,0,7,0.00
2013-12-18,78.0,64.5,54.0,30.0,25.9,20.0,34,24,12,30.01,29.77,3,0,8,0.00
2013-12-19,68.0,60.4,50.0,41.0,28.1,24.0,71,30,19,29.77,29.60,11,4,23,0.00
2013-12-20,53.0,46.6,42.0,42.0,39.7,35.0,92,78,50,29.82,29.56,7,2,19,0.44
2013-12-21,51.0,46.0,43.0,41.0,36.5,-99.9,90,72,58,30.04,29.81,6,1,13,0.01
2013-12-22,58.0,48.2,40.0,42.0,37.9,34.0,91,69,46,30.26,30.04,5,0,10,0.00
2013-12-23,62.0,49.2,39.0,39.0,34.4,30.0,82,59,32,30.33,30.22,6,1,12,0.00
2013-12-24,66.0,52.3,42.0,35.0,29.6,24.0,56,43,22,30.22,30.07,5,1,11,0.00
2013-12-25,63.0,52.2,42.0,35.0,31.3,28.0,65,46,30,30.22,30.11,5,1,10,0.00
2013-12-26,65.0,54.6,44.0,31.0,25.4,22.0,49,33,19,30.18,30.07,6,1,13,0.00
2013-12-27,68.0,54.5,44.0,26.0,21.8,15.0,45,29,13,30.18,30.05,6,1,13,0.00
2013-12-28,63.0,52.7,44.0,29.0,21.3,-99.9,42,30,20,30.10,29.91,5,1,11,0.00
2013-12-29,63.0,54.3,44.0,34.0,29.6,26.0,54,39,32,30.09,29.91,13,2,20,0.00
2013-12-30,65.0,52.3,40.0,32.0,29.2,25.0,63,43,25,30.23,30.09,6,1,13,0.00
2013-12-31,71.0,54.9,43.0,29.0,25.9,22.0,53,35,16,30.21,30.05,3,0,8,0.00
2014-1-1,68.0,56.4,45.0,32.0,28.2,25.0,47,35,21,30.12,30.02,5,1,10,0.00
2014-1-2,73.0,59.9,45.0,31.0,26.9,23.0,51,31,16,30.12,29.99,7,1,15,0.00